ADDS METAR Data INFO
IDs: Format: Raw Decoded Include TAF

Data at: 0808 UTC 24 May 2018

KAMA 240753Z AUTO 08015KT 10SM CLR 15/13 A3012 RMK AO2 LTG DSNT SE SLP152 T01500128
KAMA 240653Z AUTO 05011KT 10SM CLR 14/13 A3014 RMK AO2 LTG DSNT NE AND E RAE10 SLP158 P0002 T01440133
KAMA 240626Z AUTO 04010KT 10SM FEW032 BKN080 14/13 A3016 RMK AO2 LTG DSNT N-SE RAE10 P0002 T01440133
KAMA 240600Z AUTO 36014KT 10SM VCTS -RA FEW027 BKN033 OVC110 15/13 A3017 RMK AO2 LTG DSNT ALQDS PRESFR P0001 T01500133
KAMA 240553Z AUTO 35016G28KT 10SM -RA BKN035 BKN080 OVC100 14/13 A3019 RMK AO2 PK WND 33033/0532 WSHFT 0507 LTG DSNT ALQDS RAE04B45 TSE12 SLP177 P0000 60004 T01440133 10294 20144 403170144 53032
KAMA 240531Z AUTO 33020G32KT 10SM VCTS FEW017 BKN030 OVC060 15/13 A3023 RMK AO2 PK WND 33032/0527 WSHFT 0507 LTG DSNT ALQDS RAE04 TSE12 P0000 T01500128
KAMA 240523Z AUTO 32023G30KT 10SM VCTS FEW017 BKN028 OVC095 16/13 A3022 RMK AO2 PK WND 30030/0515 WSHFT 0507 LTG DSNT ALQDS RAE04 TSE12 P0000 T01560128
KAMA 240518Z AUTO 32020G30KT 10SM VCTS SCT017 BKN065 OVC090 16/14 A3022 RMK AO2 PK WND 30030/0515 LTG DSNT ALQDS RAE04 TSE12 PRESRR P0000 T01610139
KAMA 240453Z AUTO 10010KT 8SM -TSRA BKN060 BKN095 OVC110 17/14 A3014 RMK AO2 LTG DSNT ALQDS RAB41 TSB07E49B53 SLP159 P0004 T01720144
KAMA 240413Z 06016KT 10SM TS BKN065 BKN080 BKN090 18/14 A3012 RMK AO2 LTG DSNT W-N TSB07 T01830144
KAMA 240406Z 06016G23KT 10SM VCTS SCT065 BKN085 18/14 A3012 RMK AO2 LTG DSNT W AND NW T01830144
KAMA 240353Z 06018G23KT 10SM SCT075 BKN090 19/14 A3011 RMK AO2 LTG DSNT W-NE TSE12 SLP147 T01890144
KAMA 240318Z 06015KT 10SM BKN065 OVC080 19/14 A3010 RMK AO2 LTG DSNT N AND NE TSE12 T01890144
KAMA 240253Z 06016KT 10SM TS OVC065 19/14 A3009 RMK AO2 PK WND 06034/0210 WSHFT 0157 LTG DSNT NW-NE TSB52 SLP143 60000 T01940139 50007
KAMA 240249Z 05015G26KT 10SM OVC065 19/13 A3009 RMK AO2 PK WND 06034/0210 WSHFT 0157 LTG DSNT NW-NE
KAMA 240217Z 04016G34KT 10SM VCTS BKN065 21/14 A3009 RMK AO2 PK WND 06034/0210 WSHFT 0157 LTG DSNT NW-NE T02110139
KAMA 240153Z 07006KT 10SM CLR 24/14 A3007 RMK AO2 PK WND 15027/0057 LTG DSNT N AND NE RAB16E26 PRESRR SLP136 P0000 T02440139
KAMA 240150Z 11007KT 10SM CLR 25/13 A3006 RMK AO2 PK WND 15027/0057 LTG DSNT N-E RAB16E26 PRESRR P0000
KAMA 240135Z 15014KT 10SM VCTS FEW070 FEW090 SCT110 25/14 A3003 RMK AO2 PK WND 15027/0057 LTG DSNT NW-E RAB16E26 P0000 T02500139
KAMA 240053Z 16016G22KT 10SM SCT100 28/12 A3002 RMK AO2 PK WND 16026/0041 LTG DSNT NW-NE SLP117 T02780117
KAMA 240042Z 16020G26KT 10SM VCTS FEW080 BKN100 28/12 A3002 RMK AO2 PK WND 16026/0041 LTG DSNT N AND NW T02780122
KAMA 232353Z 17019G25KT 10SM CLR 29/12 A2999 RMK AO2 PK WND 16026/2322 SLP104 T02890117 10317 20278 56017
KAMA 232253Z 17021G27KT 10SM FEW075 30/12 A3001 RMK AO2 PK WND 14028/2209 SLP107 T03000117
KAMA 232153Z 17020G32KT 10SM SCT070 31/12 A3002 RMK AO2 PK WND 18032/2150 SLP111 T03060117
KAMA 232053Z 18017KT 10SM SCT075 29/11 A3005 RMK AO2 PK WND 18027/2003 SLP123 T02940106 58018
KAMA 231953Z 18013KT 10SM CLR 29/10 A3006 RMK AO2 PK WND 18026/1909 SLP130 T02940100
KAMA 231853Z 16018G26KT 10SM SCT065 29/12 A3009 RMK AO2 PK WND 17026/1853 SLP137 T02890122
KAMA 231753Z 17016G21KT 10SM SCT060 29/12 A3011 RMK AO2 SLP141 T02890117 10289 20172 58006
KAMA 231653Z 15012KT 10SM CLR 27/11 A3012 RMK AO2 SLP149 T02670111
KAMA 231553Z 18010KT 10SM CLR 25/11 A3012 RMK AO2 SLP150 T02500111
KAMA 231453Z 16006KT 10SM CLR 22/12 A3013 RMK AO2 SLP152 T02220117 53006
KAMA 231353Z 15009KT 10SM FEW120 19/13 A3009 RMK AO2 SLP143 T01940133
KAMA 231323Z 09014KT 10SM SCT120 18/13 A3005 RMK AO2 PRESFR T01830133
KAMA 231253Z 00000KT 10SM CLR 18/13 A3009 RMK AO2 SLP140 T01780133
KAMA 231153Z 18004KT 10SM CLR 18/14 A3010 RMK AO2 SLP145 T01780139 10200 20167 53020
KAMA 231053Z 20012KT 10SM FEW037 BKN065 18/14 A3007 RMK AO2 SLP131 T01830144
KAMA 230953Z AUTO 15008KT 10SM OVC055 17/14 A3005 RMK AO2 SLP123 T01720139
KAMA 230853Z AUTO 14011KT 10SM CLR 17/14 A3004 RMK AO2 SLP121 T01720139 53005
KAMA 230753Z AUTO 13010KT 10SM CLR 17/14 A3002 RMK AO2 SLP116 T01720139
KAMA 230653Z AUTO 14008KT 10SM FEW060 18/13 A3003 RMK AO2 SLP119 T01830133
KAMA 230553Z AUTO 14011KT 10SM CLR 20/13 A3002 RMK AO2 SLP115 T02000133 10278 20194 403060144 50008
KAMA 230453Z AUTO 13009KT 10SM CLR 20/12 A3003 RMK AO2 SLP120 T02000117
KAMA 230353Z 14011KT 10SM CLR 21/11 A3002 RMK AO2 SLP122 T02060111
KAMA 230253Z 15012KT 10SM CLR 23/10 A3000 RMK AO2 SLP112 T02280100 53012
KAMA 230153Z 15012KT 10SM CLR 24/11 A2998 RMK AO2 SLP107 T02440106
KAMA 230053Z 16017KT 10SM CLR 27/10 A2995 RMK AO2 SLP096 T02670100
KAMA 222353Z 17018KT 10SM FEW070 28/11 A2996 RMK AO2 PK WND 16028/2331 SLP097 T02780106 10306 20267 56008
KAMA 222253Z 17020G27KT 10SM FEW075 SCT090 BKN110 29/10 A2996 RMK AO2 PK WND 17027/2250 SLP094 T02940100
KAMA 222153Z 19018G24KT 10SM CLR 30/09 A2997 RMK AO2 SLP094 T03000094
KAMA 222053Z 17017G23KT 10SM BKN070 29/09 A2999 RMK AO2 SLP101 T02890094 56019